createdAt,value
2018-03-15T00:00:54.939Z,9.25
2018-03-15T00:03:28.223Z,5.80
2018-03-15T00:05:55.771Z,7.62
2018-03-15T00:08:23.267Z,6.97
2018-03-15T00:10:50.797Z,4.87
2018-03-15T00:13:18.424Z,10.40
2018-03-15T00:15:45.938Z,5.80
2018-03-15T00:18:13.481Z,10.23
2018-03-15T00:20:41.023Z,9.57
2018-03-15T00:23:08.516Z,9.07
2018-03-15T00:25:36.074Z,8.98
2018-03-15T00:28:03.599Z,12.75
2018-03-15T00:30:31.103Z,9.77
2018-03-15T00:32:58.649Z,10.20
2018-03-15T00:35:26.149Z,10.05
2018-03-15T00:37:53.653Z,8.98
2018-03-15T00:40:21.159Z,7.43
2018-03-15T00:42:48.683Z,11.77
2018-03-15T00:45:16.192Z,4.43
2018-03-15T00:47:43.671Z,6.05
2018-03-15T00:50:11.171Z,7.97
2018-03-15T00:52:39.065Z,5.55
2018-03-15T00:55:06.594Z,5.20
2018-03-15T00:57:34.478Z,5.50
2018-03-15T01:00:02.371Z,8.52
2018-03-15T01:02:29.887Z,4.07
2018-03-15T01:04:58.412Z,7.37
2018-03-15T01:07:25.912Z,12.68
2018-03-15T01:09:53.408Z,7.15
2018-03-15T01:12:21.003Z,8.63
2018-03-15T01:14:48.535Z,5.90
2018-03-15T01:17:16.046Z,7.03
2018-03-15T01:19:43.536Z,9.07
2018-03-15T01:22:11.073Z,11.35
2018-03-15T01:24:38.958Z,8.13
2018-03-15T01:27:06.441Z,9.75
2018-03-15T01:29:34.203Z,11.70
2018-03-15T01:32:01.726Z,8.75
2018-03-15T01:34:29.607Z,9.77
2018-03-15T01:36:57.098Z,11.07
2018-03-15T01:39:24.627Z,9.23
2018-03-15T01:41:52.110Z,10.70
2018-03-15T01:44:19.628Z,11.23
2018-03-15T01:46:47.136Z,11.35
2018-03-15T01:49:14.616Z,12.88
2018-03-15T01:51:42.117Z,8.55
2018-03-15T01:54:09.646Z,10.60
2018-03-15T01:56:37.570Z,9.68
2018-03-15T01:59:05.102Z,10.73
2018-03-15T02:01:33.423Z,13.13
2018-03-15T02:04:00.912Z,8.98
2018-03-15T02:06:28.829Z,12.48
2018-03-15T02:08:56.363Z,10.20
2018-03-15T02:11:23.868Z,10.77
2018-03-15T02:13:51.364Z,13.13
2018-03-15T02:16:18.910Z,14.32
2018-03-15T02:18:46.581Z,12.23
2018-03-15T02:21:14.278Z,11.07
2018-03-15T02:23:41.832Z,8.85
2018-03-15T02:26:09.519Z,7.55
2018-03-15T02:28:37.072Z,9.02
2018-03-15T02:31:04.662Z,10.60
2018-03-15T02:33:32.566Z,15.15
2018-03-15T02:36:00.153Z,11.75
2018-03-15T02:38:27.760Z,16.70
2018-03-15T02:40:55.316Z,13.52
2018-03-15T02:43:22.870Z,19.00
2018-03-15T02:45:50.397Z,10.88
2018-03-15T02:48:17.919Z,18.90
2018-03-15T02:50:45.415Z,13.68
2018-03-15T02:53:12.937Z,12.27
2018-03-15T02:55:40.460Z,10.70
2018-03-15T02:58:08.402Z,15.02
2018-03-15T03:00:35.971Z,18.90
2018-03-15T03:03:03.488Z,14.65
2018-03-15T03:05:31.048Z,13.68
2018-03-15T03:07:58.624Z,20.20
2018-03-15T03:10:26.134Z,18.50
2018-03-15T03:12:53.673Z,16.35
2018-03-15T03:15:21.555Z,14.50
2018-03-15T03:17:49.061Z,13.90
2018-03-15T03:20:16.567Z,16.50
2018-03-15T03:22:44.077Z,14.05
2018-03-15T03:25:11.579Z,14.23
2018-03-15T03:27:39.121Z,11.98
2018-03-15T03:30:07.032Z,18.87
2018-03-15T03:32:34.519Z,19.90
2018-03-15T03:35:02.019Z,16.42
2018-03-15T03:37:29.526Z,8.95
2018-03-15T03:39:57.056Z,23.25
2018-03-15T03:42:24.566Z,22.13
2018-03-15T03:44:52.121Z,21.12
2018-03-15T03:47:19.624Z,22.20
2018-03-15T03:49:47.110Z,14.27
2018-03-15T03:52:14.608Z,20.00
2018-03-15T03:54:42.491Z,19.73
2018-03-15T03:57:09.989Z,21.37
2018-03-15T03:59:37.496Z,10.65
2018-03-15T04:02:05.395Z,21.05
2018-03-15T04:04:32.889Z,12.57
2018-03-15T04:07:00.403Z,21.77
2018-03-15T04:09:27.887Z,14.68
2018-03-15T04:11:55.385Z,11.48
2018-03-15T04:14:23.299Z,22.27
2018-03-15T04:16:50.804Z,19.65
2018-03-15T04:19:18.727Z,17.02
2018-03-15T04:21:46.252Z,17.45
2018-03-15T04:24:13.744Z,22.02
2018-03-15T04:26:41.232Z,19.17
2018-03-15T04:29:08.735Z,21.73
2018-03-15T04:31:36.216Z,17.75
2018-03-15T04:34:03.727Z,23.73
2018-03-15T04:36:31.608Z,23.48
2018-03-15T04:38:59.106Z,20.12
2018-03-15T04:41:26.603Z,16.75
2018-03-15T04:43:54.508Z,12.13
2018-03-15T04:46:21.987Z,19.00
2018-03-15T04:48:49.475Z,18.23
2018-03-15T04:51:17.385Z,19.60
2018-03-15T04:53:44.883Z,19.67
2018-03-15T04:56:12.372Z,16.33
2018-03-15T04:58:40.275Z,21.05
2018-03-15T05:01:07.775Z,18.98
2018-03-15T05:03:35.277Z,17.65
2018-03-15T05:06:02.787Z,15.77
2018-03-15T05:08:30.284Z,14.25
2018-03-15T05:10:57.772Z,26.12
2018-03-15T05:13:25.271Z,17.62
2018-03-15T05:15:53.156Z,13.23
2018-03-15T05:18:20.671Z,20.48
2018-03-15T05:20:48.159Z,15.95
2018-03-15T05:23:16.045Z,18.10
2018-03-15T05:25:43.551Z,15.00
2018-03-15T05:28:11.039Z,22.52
2018-03-15T05:30:38.537Z,16.85
2018-03-15T05:33:06.030Z,19.17
2018-03-15T05:35:33.526Z,18.50
2018-03-15T05:38:01.016Z,24.55
2018-03-15T05:40:28.561Z,19.73
2018-03-15T05:42:56.052Z,21.65
2018-03-15T05:45:23.539Z,21.00
2018-03-15T05:47:51.445Z,19.10
2018-03-15T05:50:18.943Z,24.90
2018-03-15T05:52:46.434Z,19.80
2018-03-15T05:55:13.936Z,13.38
2018-03-15T05:57:41.512Z,12.82
2018-03-15T06:00:09.012Z,18.92
2018-03-15T06:02:36.507Z,20.40
2018-03-15T06:05:04.011Z,13.65
2018-03-15T06:07:31.564Z,19.05
2018-03-15T06:09:59.447Z,17.40
2018-03-15T06:12:26.932Z,15.52
2018-03-15T06:14:54.431Z,26.35
2018-03-15T06:17:22.317Z,14.07
2018-03-15T06:19:49.839Z,22.52
2018-03-15T06:22:17.328Z,22.08
2018-03-15T06:24:45.211Z,21.52
2018-03-15T06:27:12.852Z,22.77
2018-03-15T06:29:40.744Z,16.20
2018-03-15T06:32:08.227Z,15.02
2018-03-15T06:34:35.740Z,16.60
2018-03-15T06:37:03.234Z,22.20
2018-03-15T06:39:30.790Z,11.18
2018-03-15T06:41:58.340Z,21.73
2018-03-15T06:44:25.811Z,17.17
2018-03-15T06:46:53.303Z,18.92
2018-03-15T06:49:20.796Z,14.27
2018-03-15T06:51:48.302Z,11.12
2018-03-15T06:54:15.802Z,13.57
2018-03-15T06:56:43.294Z,9.45
2018-03-15T06:59:10.814Z,14.15
2018-03-15T07:01:38.758Z,18.55
2018-03-15T07:04:06.648Z,13.88
2018-03-15T07:06:34.170Z,8.80
2018-03-15T07:09:01.671Z,17.25
2018-03-15T07:11:29.179Z,19.00
2018-03-15T07:13:56.679Z,14.75
2018-03-15T07:16:24.179Z,15.38
2018-03-15T07:18:51.679Z,14.10
2018-03-15T07:21:19.594Z,13.33
2018-03-15T07:23:47.106Z,13.20
2018-03-15T07:26:14.987Z,6.80
2018-03-15T07:28:42.486Z,13.57
2018-03-15T07:31:09.996Z,15.80
2018-03-15T07:33:37.480Z,10.87
2018-03-15T07:36:04.967Z,11.87
2018-03-15T07:38:32.476Z,14.07
2018-03-15T07:41:00.040Z,18.63
2018-03-15T07:43:27.552Z,16.30
2018-03-15T07:45:55.055Z,13.27
2018-03-15T07:48:22.621Z,17.63
2018-03-15T07:50:50.156Z,13.67
2018-03-15T07:53:17.623Z,15.03
2018-03-15T07:55:45.123Z,15.97
2018-03-15T07:58:12.623Z,17.90
2018-03-15T08:00:40.522Z,10.03
2018-03-15T08:03:08.036Z,18.37
2018-03-15T08:05:35.947Z,16.40
2018-03-15T08:08:03.461Z,16.00
2018-03-15T08:10:30.952Z,17.40
2018-03-15T08:12:58.439Z,12.70
2018-03-15T08:15:25.956Z,16.37
2018-03-15T08:17:53.461Z,15.13
2018-03-15T08:20:20.963Z,17.53
2018-03-15T08:22:48.475Z,13.77
2018-03-15T08:25:15.989Z,20.60
2018-03-15T08:27:43.492Z,10.87
2018-03-15T08:30:10.995Z,11.93
2018-03-15T08:32:38.488Z,16.97
2018-03-15T08:35:05.982Z,15.53
2018-03-15T08:37:33.481Z,15.67
2018-03-15T08:40:00.979Z,15.00
2018-03-15T08:42:28.492Z,13.77
2018-03-15T08:44:56.008Z,14.90
2018-03-15T08:47:23.516Z,14.93
2018-03-15T08:49:51.008Z,15.73
2018-03-15T08:52:18.540Z,20.27
2018-03-15T08:54:46.014Z,15.53
2018-03-15T08:57:13.503Z,16.70
2018-03-15T08:59:41.402Z,13.10
2018-03-15T09:02:08.971Z,16.63
2018-03-15T09:04:37.164Z,13.70
2018-03-15T09:07:04.800Z,11.17
2018-03-15T09:09:32.299Z,13.83
2018-03-15T09:11:59.783Z,14.33
2018-03-15T09:14:27.712Z,13.93
2018-03-15T09:16:55.204Z,13.87
2018-03-15T09:19:23.124Z,9.37
2018-03-15T09:21:50.689Z,16.27
2018-03-15T09:24:18.178Z,15.33
2018-03-15T09:26:46.065Z,14.70
2018-03-15T09:29:13.568Z,11.90
2018-03-15T09:31:41.191Z,11.23
2018-03-15T09:34:08.691Z,11.03
2018-03-15T09:36:36.213Z,11.97
2018-03-15T09:39:03.714Z,14.57
2018-03-15T09:41:31.927Z,16.53
2018-03-15T09:43:59.472Z,13.63
2018-03-15T09:46:26.983Z,13.40
2018-03-15T09:48:54.511Z,17.07
2018-03-15T09:51:22.022Z,10.10
2018-03-15T09:53:49.926Z,12.93
2018-03-15T09:56:17.438Z,11.80
2018-03-15T09:58:45.925Z,15.47
2018-03-15T10:01:13.447Z,16.20
2018-03-15T10:03:40.958Z,14.00
2018-03-15T10:06:08.856Z,11.07
2018-03-15T10:08:36.487Z,13.40
2018-03-15T10:11:04.015Z,11.63
2018-03-15T10:13:31.512Z,12.00
2018-03-15T10:15:59.045Z,15.73
2018-03-15T10:18:26.557Z,14.30
2018-03-15T10:20:54.120Z,13.40
2018-03-15T10:23:21.666Z,18.90
2018-03-15T10:25:49.185Z,12.70
2018-03-15T10:28:17.082Z,18.30
2018-03-15T10:30:44.583Z,19.67
2018-03-15T10:33:17.804Z,17.07
2018-03-15T10:35:45.714Z,18.33
2018-03-15T10:38:13.246Z,14.53
2018-03-15T10:40:40.766Z,18.17
2018-03-15T10:43:08.271Z,17.10
2018-03-15T10:45:35.783Z,18.87
2018-03-15T10:48:03.343Z,14.70
2018-03-15T10:50:30.807Z,12.33
2018-03-15T10:52:58.303Z,15.87
2018-03-15T10:55:25.827Z,15.83
2018-03-15T10:57:53.779Z,19.23
2018-03-15T11:03:28.604Z,13.93
2018-03-15T11:06:03.875Z,18.87
2018-03-15T11:08:35.194Z,16.13
2018-03-15T11:11:02.721Z,16.87
2018-03-15T11:13:30.284Z,14.30
2018-03-15T11:15:57.735Z,18.07
2018-03-15T11:18:25.244Z,16.00
2018-03-15T11:20:52.755Z,15.93
2018-03-15T11:23:20.271Z,11.73
2018-03-15T11:25:48.180Z,18.70
2018-03-15T11:28:15.684Z,19.77
2018-03-15T11:30:43.199Z,16.50
2018-03-15T11:33:10.721Z,15.67
2018-03-15T11:35:38.624Z,15.73
2018-03-15T11:38:06.147Z,12.90
2018-03-15T11:40:34.061Z,14.13
2018-03-15T11:43:01.558Z,11.83
2018-03-15T11:45:29.069Z,17.13
2018-03-15T11:47:56.583Z,15.10
2018-03-15T11:50:24.486Z,15.77
2018-03-15T11:52:52.013Z,14.03
2018-03-15T11:55:19.915Z,15.00
2018-03-15T11:57:47.425Z,13.27
2018-03-15T12:00:15.331Z,14.83
2018-03-15T12:02:42.839Z,13.23
2018-03-15T12:05:10.351Z,14.63
2018-03-15T12:07:37.899Z,16.13
2018-03-15T12:10:05.807Z,14.07
2018-03-15T12:12:33.305Z,16.83
2018-03-15T12:15:01.199Z,17.70
2018-03-15T12:17:28.712Z,12.90
2018-03-15T12:19:56.240Z,13.33
2018-03-15T12:22:23.722Z,15.87
2018-03-15T12:24:51.224Z,13.07
2018-03-15T12:27:18.716Z,15.40
2018-03-15T12:29:46.211Z,13.10
2018-03-15T12:32:14.103Z,15.90
2018-03-15T12:34:43.241Z,13.77
2018-03-15T12:37:10.807Z,13.47
2018-03-15T12:39:38.319Z,16.67
2018-03-15T12:42:05.816Z,10.70
2018-03-15T12:44:33.343Z,12.73
2018-03-15T12:47:00.827Z,14.33
2018-03-15T12:49:28.327Z,13.93
2018-03-15T12:51:56.207Z,11.47
2018-03-15T12:54:24.175Z,18.83
2018-03-15T12:56:51.667Z,16.23
2018-03-15T12:59:19.159Z,14.37
2018-03-15T13:01:46.664Z,14.47
2018-03-15T13:04:14.212Z,15.30
2018-03-15T13:06:41.711Z,13.10
2018-03-15T13:09:09.249Z,14.07
2018-03-15T13:11:36.748Z,20.00
2018-03-15T13:14:04.258Z,17.57
2018-03-15T13:16:31.785Z,15.00
2018-03-15T13:18:59.682Z,17.67
2018-03-15T13:21:27.193Z,14.70
2018-03-15T13:23:55.083Z,17.70
2018-03-15T13:26:22.595Z,13.33
2018-03-15T13:28:50.106Z,15.90
2018-03-15T13:31:17.651Z,12.27
2018-03-15T13:33:45.159Z,17.40
2018-03-15T13:36:12.648Z,15.13
2018-03-15T13:38:40.574Z,16.90
2018-03-15T13:41:08.086Z,19.67
2018-03-15T13:43:35.982Z,14.97
2018-03-15T13:46:03.478Z,15.00
2018-03-15T13:48:31.024Z,16.80
2018-03-15T13:50:58.495Z,14.10
2018-03-15T13:53:25.983Z,16.57
2018-03-15T13:55:53.480Z,16.47
2018-03-15T13:58:21.028Z,12.00
2018-03-15T14:00:48.872Z,16.57
2018-03-15T14:03:16.369Z,18.07
2018-03-15T14:05:43.868Z,18.87
2018-03-15T14:08:11.802Z,18.63
2018-03-15T14:10:39.287Z,14.00
2018-03-15T14:13:07.162Z,16.03
2018-03-15T14:15:35.048Z,11.97
2018-03-15T14:18:02.550Z,20.07
2018-03-15T14:20:30.061Z,17.37
2018-03-15T14:22:57.560Z,19.70
2018-03-15T14:25:25.068Z,13.73
2018-03-15T14:27:52.586Z,16.57
2018-03-15T14:30:20.074Z,17.87
2018-03-15T14:32:47.959Z,15.23
2018-03-15T14:35:15.461Z,14.27
2018-03-15T14:37:42.960Z,17.80
2018-03-15T14:40:10.852Z,17.77
2018-03-15T14:42:38.377Z,17.80
2018-03-15T14:47:40.199Z,15.00
2018-03-15T14:50:07.708Z,14.57
2018-03-15T14:52:35.591Z,17.77
2018-03-15T14:55:03.083Z,15.13
2018-03-15T14:57:30.578Z,15.90
2018-03-15T14:59:58.503Z,16.20
2018-03-15T15:02:26.879Z,15.17
2018-03-15T15:04:54.366Z,13.60
2018-03-15T15:07:21.859Z,16.77
2018-03-15T15:09:49.359Z,15.37
2018-03-15T15:12:16.867Z,19.90
2018-03-15T15:14:44.756Z,14.30
2018-03-15T15:17:12.242Z,17.97
2018-03-15T15:19:39.751Z,19.73
2018-03-15T15:22:07.637Z,15.33
2018-03-15T15:24:35.128Z,19.30
2018-03-15T15:27:02.638Z,18.90
2018-03-15T15:29:30.131Z,16.83
2018-03-15T15:34:37.348Z,21.97
2018-03-15T15:37:04.876Z,17.97
2018-03-15T15:39:32.358Z,16.80
2018-03-15T15:41:59.844Z,17.40
2018-03-15T15:44:27.367Z,16.50
2018-03-15T15:46:54.863Z,13.83
2018-03-15T15:49:22.776Z,17.53
2018-03-15T15:51:50.287Z,16.20
2018-03-15T15:54:18.177Z,15.50
2018-03-15T15:56:45.665Z,19.37
2018-03-15T15:59:13.217Z,16.97
2018-03-15T16:01:40.707Z,19.67
2018-03-15T16:04:08.208Z,13.47
2018-03-15T16:06:35.733Z,16.90
2018-03-15T16:09:03.639Z,13.33
2018-03-15T16:11:31.184Z,18.63
2018-03-15T16:13:58.689Z,12.87
2018-03-15T16:16:26.199Z,17.37
2018-03-15T16:18:54.080Z,17.20
2018-03-15T16:21:21.599Z,20.23
2018-03-15T16:23:49.519Z,20.53
2018-03-15T16:26:17.039Z,15.47
2018-03-15T16:28:44.939Z,28.87
2018-03-15T16:31:12.481Z,18.40
2018-03-15T16:33:39.961Z,15.80
2018-03-15T16:36:07.462Z,19.40
2018-03-15T16:38:35.396Z,16.70
2018-03-15T16:41:02.963Z,15.00
2018-03-15T16:43:30.463Z,18.67
2018-03-15T16:46:00.554Z,17.90
2018-03-15T16:48:28.055Z,16.73
2018-03-15T16:50:55.571Z,21.43
2018-03-15T16:53:23.527Z,18.90
2018-03-15T16:55:51.028Z,15.03
2018-03-15T16:58:18.531Z,16.57
2018-03-15T17:00:46.032Z,15.83
2018-03-15T17:03:13.528Z,15.17
2018-03-15T17:05:41.046Z,15.63
2018-03-15T17:08:08.588Z,13.00
2018-03-15T17:10:36.119Z,23.17
2018-03-15T17:13:03.731Z,16.53
2018-03-15T17:15:31.251Z,20.03
2018-03-15T17:18:01.289Z,18.00
2018-03-15T17:20:28.821Z,17.73
2018-03-15T17:22:56.315Z,21.07
2018-03-15T17:25:24.256Z,22.10
2018-03-15T17:27:51.728Z,15.70
2018-03-15T17:30:19.628Z,20.33
2018-03-15T17:32:47.116Z,14.27
2018-03-15T17:35:14.676Z,18.20
2018-03-15T17:37:42.296Z,13.07
2018-03-15T17:40:09.824Z,16.40
2018-03-15T17:42:37.711Z,17.73
2018-03-15T17:45:05.244Z,16.97
2018-03-15T17:47:32.744Z,15.97
2018-03-15T17:50:00.302Z,12.63
2018-03-15T17:52:27.804Z,15.53
2018-03-15T17:54:55.367Z,15.70
2018-03-15T17:57:22.915Z,22.93
2018-03-15T17:59:50.411Z,17.73
2018-03-15T18:02:18.009Z,23.20
2018-03-15T18:04:45.613Z,15.47
2018-03-15T18:07:13.649Z,19.70
2018-03-15T18:09:41.380Z,24.00
2018-03-15T18:12:08.879Z,15.23
2018-03-15T18:14:36.846Z,21.10
2018-03-15T18:17:04.463Z,20.97
2018-03-15T18:19:32.171Z,19.97
2018-03-15T18:21:59.694Z,25.30
2018-03-15T18:24:27.191Z,17.93
2018-03-15T18:26:54.807Z,19.83
2018-03-15T18:29:22.312Z,21.20
2018-03-15T18:31:49.865Z,21.20
2018-03-15T18:34:17.456Z,21.37
2018-03-15T18:36:45.540Z,20.83
2018-03-15T18:39:13.048Z,23.47
2018-03-15T18:41:40.619Z,16.17
2018-03-15T18:44:08.181Z,25.03
2018-03-15T18:46:35.725Z,17.60
2018-03-15T18:49:03.376Z,23.00
2018-03-15T18:51:32.553Z,23.60
2018-03-15T18:54:01.462Z,21.97
2018-03-15T18:56:29.513Z,23.87
2018-03-15T18:58:57.046Z,18.17
2018-03-15T19:01:24.548Z,25.10
2018-03-15T19:03:52.050Z,20.93
2018-03-15T19:06:19.980Z,20.70
2018-03-15T19:08:48.496Z,20.87
2018-03-15T19:11:17.467Z,26.40
2018-03-15T19:13:46.180Z,17.70
2018-03-15T19:16:14.841Z,23.53
2018-03-15T19:18:42.394Z,21.90
2018-03-15T19:21:10.317Z,25.90
2018-03-15T19:23:37.833Z,20.30
2018-03-15T19:26:05.759Z,15.60
2018-03-15T19:28:33.263Z,17.43
2018-03-15T19:31:00.759Z,20.80
2018-03-15T19:33:28.271Z,24.23
2018-03-15T19:35:56.202Z,19.97
2018-03-15T19:38:23.704Z,23.13
2018-03-15T19:40:51.589Z,21.67
2018-03-15T19:43:19.107Z,26.77
2018-03-15T19:45:46.624Z,21.60
2018-03-15T19:48:14.119Z,25.03
2018-03-15T19:50:41.609Z,20.73
2018-03-15T19:53:09.120Z,27.60
2018-03-15T19:55:43.327Z,30.23
2018-03-15T19:58:10.828Z,29.57
2018-03-15T20:00:38.744Z,28.90
2018-03-15T20:03:06.263Z,32.80
2018-03-15T20:05:34.170Z,31.07
2018-03-15T20:08:01.679Z,31.67
2018-03-15T20:10:29.566Z,37.43
2018-03-15T20:12:57.072Z,32.33
2018-03-15T20:15:24.567Z,30.30
2018-03-15T20:17:52.495Z,21.03
2018-03-15T20:20:20.713Z,21.17
2018-03-15T20:22:54.188Z,30.00
2018-03-15T20:25:21.689Z,26.87
2018-03-15T20:27:54.947Z,31.13
2018-03-15T20:30:22.448Z,28.10
2018-03-15T20:32:55.667Z,21.77
2018-03-15T20:35:23.174Z,31.53
2018-03-15T20:37:50.688Z,33.57
2018-03-15T20:40:23.951Z,33.13
2018-03-15T20:42:51.471Z,33.97
2018-03-15T20:45:24.600Z,29.47
2018-03-15T20:47:57.711Z,29.17
2018-03-15T20:50:25.196Z,24.97
2018-03-15T20:52:53.132Z,31.67
2018-03-15T20:55:20.636Z,33.00
2018-03-15T20:57:48.131Z,27.93
2018-03-15T21:00:15.644Z,30.13
2018-03-15T21:02:43.628Z,29.97
2018-03-15T21:05:11.164Z,33.87
2018-03-15T21:07:39.061Z,31.87
2018-03-15T21:10:07.971Z,29.27
2018-03-15T21:12:35.475Z,26.93
2018-03-15T21:15:05.068Z,33.53
2018-03-15T21:17:32.610Z,31.47
2018-03-15T21:20:00.352Z,32.47
2018-03-15T21:22:27.968Z,32.77
2018-03-15T21:24:55.915Z,35.67
2018-03-15T21:27:23.408Z,31.13
2018-03-15T21:29:50.922Z,34.40
2018-03-15T21:32:18.431Z,20.47
2018-03-15T21:34:45.931Z,30.97
2018-03-15T21:37:13.530Z,29.03
2018-03-15T21:39:41.144Z,36.07
2018-03-15T21:42:08.660Z,36.83
2018-03-15T21:44:36.164Z,35.67
2018-03-15T21:47:03.673Z,34.03
2018-03-15T21:49:31.187Z,20.13
2018-03-15T21:51:58.687Z,33.30
2018-03-15T21:54:26.231Z,21.37
2018-03-15T21:56:54.112Z,34.90
2018-03-15T21:59:21.631Z,32.73
2018-03-15T22:01:49.114Z,33.73
2018-03-15T22:04:16.996Z,26.67
2018-03-15T22:06:44.503Z,35.80
2018-03-15T22:09:11.999Z,32.63
2018-03-15T22:11:39.508Z,31.83
2018-03-15T22:14:06.999Z,34.33
2018-03-15T22:16:34.900Z,36.63
2018-03-15T22:19:02.495Z,36.53
2018-03-15T22:21:29.947Z,36.90
2018-03-15T22:23:57.439Z,33.33
2018-03-15T22:26:25.327Z,37.63
2018-03-15T22:28:52.826Z,33.23
2018-03-15T22:31:20.319Z,35.83
2018-03-15T22:33:48.224Z,34.27
2018-03-15T22:36:15.790Z,20.97
2018-03-15T22:38:43.288Z,33.10
2018-03-15T22:41:10.791Z,33.63
2018-03-15T22:43:38.280Z,31.50
2018-03-15T22:46:05.769Z,37.43
2018-03-15T22:48:33.279Z,28.63
2018-03-15T22:51:00.801Z,37.67
2018-03-15T22:53:30.192Z,32.17
2018-03-15T22:55:57.694Z,37.90
2018-03-15T22:58:25.185Z,34.30
2018-03-15T23:00:52.680Z,38.27
2018-03-15T23:03:21.102Z,37.90
2018-03-15T23:05:48.619Z,36.57
2018-03-15T23:08:16.123Z,37.17
2018-03-15T23:10:43.623Z,37.30
2018-03-15T23:13:11.131Z,35.63
2018-03-15T23:15:38.619Z,41.37
2018-03-15T23:18:06.523Z,36.17
2018-03-15T23:20:34.004Z,40.40
2018-03-15T23:23:01.504Z,38.70
2018-03-15T23:25:29.444Z,40.33
2018-03-15T23:27:56.923Z,40.93
2018-03-15T23:30:24.420Z,41.80
2018-03-15T23:32:51.911Z,36.27
2018-03-15T23:35:19.432Z,44.20
2018-03-15T23:37:46.930Z,32.03
2018-03-15T23:40:14.426Z,39.17
2018-03-15T23:42:42.326Z,44.63
2018-03-15T23:45:09.816Z,39.30
2018-03-15T23:47:37.320Z,40.87
2018-03-15T23:50:04.823Z,47.47
2018-03-15T23:52:32.316Z,25.23
2018-03-15T23:55:00.227Z,30.07
2018-03-15T23:57:27.740Z,37.13
2018-03-15T23:59:55.660Z,44.27
